Time;durP1;ratioP1;P1;durP2;ratioP2;P2;SDS_P1;SDS_P2;PMS_P1;PMS_P2;Temp;Humidity;BMP_temperature;BMP_pressure;BME280_temperature;BME280_humidity;BME280_pressure;Samples;Min_cycle;Max_cycle;Signal;HPM_P1;HPM_P2
2023/03/08 00:01:46;;;;;;;33.75;30.25;;;10.80;99.90;;;;;;5186139;28;20080;-66
2023/03/08 00:04:17;;;;;;;35.13;31.88;;;11.00;99.90;;;;;;5186089;28;20516;-66
2023/03/08 00:06:48;;;;;;;30.40;27.50;;;10.90;99.90;;;;;;5186193;28;20509;-66
2023/03/08 00:09:19;;;;;;;30.98;28.00;;;11.10;99.90;;;;;;5185953;28;20022;-66
2023/03/08 00:11:50;;;;;;;30.15;27.52;;;11.20;99.90;;;;;;5186040;28;20036;-67
2023/03/08 00:14:21;;;;;;;27.85;25.40;;;11.00;99.90;;;;;;5185962;28;20529;-67
2023/03/08 00:16:52;;;;;;;29.45;26.58;;;10.90;99.90;;;;;;5185941;28;20105;-65
2023/03/08 00:19:22;;;;;;;32.53;28.75;;;10.70;99.90;;;;;;5185968;28;20126;-65
2023/03/08 00:21:53;;;;;;;32.15;28.83;;;11.00;99.90;;;;;;5185469;28;20042;-66
2023/03/08 00:24:25;;;;;;;27.88;24.92;;;11.10;99.90;;;;;;5186018;28;20110;-66
2023/03/08 00:26:56;;;;;;;29.45;26.75;;;10.80;99.90;;;;;;5185688;28;20033;-65
2023/03/08 00:29:27;;;;;;;31.15;28.13;;;10.90;99.90;;;;;;5185846;28;20022;-65
2023/03/08 00:31:58;;;;;;;28.35;25.40;;;11.10;99.90;;;;;;5185743;28;20056;-65
2023/03/08 00:34:29;;;;;;;28.45;25.80;;;11.40;99.90;;;;;;5185981;28;20445;-66
2023/03/08 00:37:00;;;;;;;28.20;25.63;;;11.20;99.90;;;;;;5185731;28;20026;-67
2023/03/08 00:39:30;;;;;;;40.85;37.30;;;10.90;99.90;;;;;;5184540;28;20100;-65
2023/03/08 00:42:01;;;;;;;30.10;27.30;;;11.50;99.90;;;;;;5203673;28;20030;-67
2023/03/08 00:44:32;;;;;;;29.73;26.95;;;11.40;99.90;;;;;;5205956;28;20029;-67
2023/03/08 00:47:03;;;;;;;30.75;27.95;;;11.40;99.90;;;;;;5205799;28;20024;-67
2023/03/08 00:49:34;;;;;;;36.10;33.17;;;11.40;99.90;;;;;;5205803;28;20078;-65
2023/03/08 00:52:05;;;;;;;31.77;28.83;;;11.40;99.90;;;;;;5205737;28;20104;-65
2023/03/08 00:54:36;;;;;;;30.65;27.77;;;11.40;99.90;;;;;;5205829;28;20033;-65
2023/03/08 00:57:07;;;;;;;34.85;31.38;;;11.60;99.90;;;;;;5205768;28;20024;-65
2023/03/08 00:59:38;;;;;;;34.72;31.52;;;11.50;99.90;;;;;;5205822;28;20033;-66
2023/03/08 01:02:08;;;;;;;36.83;33.22;;;11.50;99.90;;;;;;5205689;28;20482;-66
2023/03/08 01:04:39;;;;;;;34.60;31.27;;;11.50;99.90;;;;;;5205861;28;20051;-66
2023/03/08 01:07:10;;;;;;;35.25;31.75;;;11.50;99.90;;;;;;5209936;28;20037;-66
2023/03/08 01:09:41;;;;;;;34.83;31.55;;;11.60;99.90;;;;;;5210019;28;20033;-66
2023/03/08 01:12:15;;;;;;;36.60;33.00;;;11.50;99.90;;;;;;5209938;28;20036;-67
2023/03/08 01:14:57;;;;;;;35.25;31.77;;;11.50;99.90;;;;;;5209688;28;20021;-67
2023/03/08 01:17:33;;;;;;;51.75;47.17;;;11.40;99.90;;;;;;5209751;28;20044;-67
2023/03/08 01:20:06;;;;;;;36.90;31.23;;;11.50;99.90;;;;;;5209741;28;20028;-67
2023/03/08 01:22:37;;;;;;;65.70;60.70;;;11.50;99.90;;;;;;5209338;28;20069;-65
2023/03/08 01:25:08;;;;;;;35.85;32.10;;;11.50;99.90;;;;;;5209724;28;20029;-66
2023/03/08 01:27:39;;;;;;;36.90;33.60;;;11.50;99.90;;;;;;5208295;28;20155;-66
2023/03/08 01:30:10;;;;;;;34.95;31.52;;;11.40;99.90;;;;;;5209717;28;20100;-65
2023/03/08 01:32:41;;;;;;;35.67;31.85;;;11.60;99.90;;;;;;5209570;28;20021;-66
2023/03/08 01:35:12;;;;;;;37.65;33.75;;;11.40;99.90;;;;;;5209607;28;20029;-66
2023/03/08 01:37:43;;;;;;;38.28;34.30;;;11.40;99.90;;;;;;5209407;28;20087;-65
2023/03/08 01:40:15;;;;;;;41.42;37.75;;;11.30;99.90;;;;;;5209565;28;20021;-65
2023/03/08 01:42:46;;;;;;;38.47;34.50;;;11.40;99.90;;;;;;5209520;28;20145;-66
2023/03/08 01:45:54;;;;;;;37.78;34.17;;;11.30;99.90;;;;;;5209201;28;20104;-66
2023/03/08 01:48:31;;;;;;;36.45;33.00;;;11.40;99.90;;;;;;5208026;28;20030;-65
2023/03/08 01:51:05;;;;;;;39.38;35.45;;;11.00;99.90;;;;;;5209092;28;20029;-66
2023/03/08 01:53:38;;;;;;;37.70;34.03;;;11.20;99.90;;;;;;5209246;28;20481;-65
2023/03/08 01:56:12;;;;;;;38.97;35.13;;;11.10;99.90;;;;;;5209193;28;20029;-67
2023/03/08 01:58:45;;;;;;;37.72;34.20;;;11.10;99.90;;;;;;5209069;28;20033;-65
2023/03/08 02:01:19;;;;;;;38.15;34.20;;;11.10;99.90;;;;;;5208837;28;20025;-65
2023/03/08 02:03:51;;;;;;;35.85;32.55;;;11.10;99.90;;;;;;5208955;28;20037;-66
2023/03/08 02:06:22;;;;;;;34.83;31.55;;;11.10;99.90;;;;;;5208743;28;20010;-65
2023/03/08 02:08:53;;;;;;;37.22;33.63;;;10.90;99.90;;;;;;5208845;28;20521;-66
2023/03/08 02:11:26;;;;;;;38.28;34.85;;;11.00;99.90;;;;;;5208698;28;20017;-66
2023/03/08 02:13:57;;;;;;;36.00;32.42;;;10.80;99.90;;;;;;5208701;28;20529;-65
2023/03/08 02:16:28;;;;;;;40.53;36.25;;;10.90;99.90;;;;;;5208112;28;20029;-65
2023/03/08 02:19:10;;;;;;;37.58;33.95;;;10.90;99.90;;;;;;5208460;28;20047;-65
2023/03/08 02:21:41;;;;;;;39.45;36.03;;;10.90;99.90;;;;;;5208088;28;20456;-65
2023/03/08 02:24:23;;;;;;;37.00;33.83;;;10.90;99.90;;;;;;5208501;28;20113;-67
2023/03/08 02:27:02;;;;;;;39.83;36.15;;;10.90;99.90;;;;;;5208380;28;20009;-65
2023/03/08 02:29:33;;;;;;;36.65;33.00;;;10.80;99.90;;;;;;5208470;28;20122;-65
2023/03/08 02:32:07;;;;;;;38.63;35.45;;;10.70;99.90;;;;;;5208176;28;20110;-66
2023/03/08 02:34:38;;;;;;;36.65;33.42;;;10.90;99.90;;;;;;5207160;28;20040;-66
2023/03/08 02:37:09;;;;;;;40.97;37.05;;;10.90;99.90;;;;;;5208212;28;20018;-66
2023/03/08 02:39:40;;;;;;;37.67;34.38;;;10.90;99.90;;;;;;5208201;28;20032;-66
2023/03/08 02:42:10;;;;;;;40.65;36.80;;;10.90;99.90;;;;;;5206742;28;20095;-65
2023/03/08 02:44:41;;;;;;;39.85;36.28;;;11.00;99.90;;;;;;5206911;28;20064;-67
2023/03/08 02:47:12;;;;;;;37.28;33.97;;;10.80;99.90;;;;;;5189789;28;20033;-66
2023/03/08 02:49:43;;;;;;;40.05;36.38;;;10.90;99.90;;;;;;5187589;28;20038;-66
2023/03/08 02:52:14;;;;;;;38.83;35.17;;;10.80;99.90;;;;;;5187558;28;20057;-65
2023/03/08 02:54:45;;;;;;;39.38;36.00;;;10.80;99.90;;;;;;5187570;28;20061;-66
2023/03/08 02:57:16;;;;;;;38.63;34.95;;;10.80;99.90;;;;;;5187562;28;20501;-65
2023/03/08 02:59:47;;;;;;;39.70;36.08;;;10.80;99.90;;;;;;5187868;28;20061;-66
2023/03/08 03:02:18;;;;;;;38.13;34.60;;;10.90;99.90;;;;;;5187411;28;20053;-65
2023/03/08 03:04:49;;;;;;;38.45;34.95;;;10.90;99.90;;;;;;5187360;28;20038;-66
2023/03/08 03:07:20;;;;;;;36.78;33.53;;;10.80;99.90;;;;;;5187336;28;20364;-66
2023/03/08 03:09:50;;;;;;;38.53;34.72;;;10.80;99.90;;;;;;5187478;28;20379;-66
2023/03/08 03:12:22;;;;;;;37.53;34.08;;;10.90;99.90;;;;;;5202610;28;20020;-66
2023/03/08 03:14:53;;;;;;;36.67;33.47;;;10.80;99.90;;;;;;5206373;28;20477;-66
2023/03/08 03:17:24;;;;;;;38.72;34.97;;;10.90;99.90;;;;;;5207528;28;20092;-66
2023/03/08 03:19:55;;;;;;;37.17;33.70;;;10.80;99.90;;;;;;5207595;28;20109;-66
2023/03/08 03:22:27;;;;;;;34.95;31.85;;;10.80;99.90;;;;;;5207184;28;20049;-66
2023/03/08 03:24:57;;;;;;;35.40;32.33;;;10.70;99.90;;;;;;5207634;28;20032;-66
2023/03/08 03:27:28;;;;;;;36.72;33.15;;;10.70;99.90;;;;;;5205318;28;20469;-66
2023/03/08 03:29:59;;;;;;;36.08;32.95;;;10.60;99.90;;;;;;5207095;28;20488;-66
2023/03/08 03:32:30;;;;;;;36.70;33.35;;;10.60;99.90;;;;;;5207363;28;20606;-67
2023/03/08 03:35:01;;;;;;;35.15;32.22;;;10.70;99.90;;;;;;5203959;28;20017;-66
2023/03/08 03:37:34;;;;;;;36.90;33.53;;;10.70;99.90;;;;;;5186647;28;20101;-66
2023/03/08 03:40:06;;;;;;;36.65;33.22;;;10.90;99.90;;;;;;5186523;28;20072;-67
2023/03/08 03:42:37;;;;;;;37.55;34.20;;;10.70;99.90;;;;;;5186644;28;20048;-67
2023/03/08 03:45:08;;;;;;;37.13;33.63;;;10.50;99.90;;;;;;5186522;28;20482;-66
2023/03/08 03:47:39;;;;;;;32.85;29.80;;;10.60;99.90;;;;;;5186364;28;20037;-65
2023/03/08 03:50:10;;;;;;;36.15;32.67;;;10.70;99.90;;;;;;5186366;28;20030;-67
2023/03/08 03:52:41;;;;;;;35.70;32.63;;;10.60;99.90;;;;;;5201495;28;20056;-66
2023/03/08 03:55:12;;;;;;;36.17;32.67;;;10.30;99.90;;;;;;5186378;28;20038;-67
2023/03/08 03:57:44;;;;;;;36.75;33.35;;;10.70;99.90;;;;;;5186362;28;20072;-67
2023/03/08 04:00:20;;;;;;;35.45;32.47;;;10.50;99.90;;;;;;5186244;28;20022;-67
2023/03/08 04:02:51;;;;;;;33.53;30.65;;;10.60;99.90;;;;;;5186297;28;20065;-66
2023/03/08 04:05:23;;;;;;;37.33;33.95;;;10.30;99.90;;;;;;5186445;28;20046;-66
2023/03/08 04:07:53;;;;;;;35.35;32.15;;;10.40;99.90;;;;;;5186475;28;20029;-66
2023/03/08 04:10:24;;;;;;;34.47;31.33;;;10.40;99.90;;;;;;5186354;28;20026;-66
2023/03/08 04:12:55;;;;;;;36.00;32.90;;;10.30;99.90;;;;;;5186237;28;20050;-65
2023/03/08 04:15:27;;;;;;;37.17;33.65;;;10.60;99.90;;;;;;5185957;28;20109;-65
2023/03/08 04:17:58;;;;;;;53.83;48.10;;;10.60;99.90;;;;;;5194262;28;20030;-66
2023/03/08 04:20:29;;;;;;;45.75;40.97;;;10.40;99.90;;;;;;5200801;28;20026;-67
2023/03/08 04:23:00;;;;;;;40.75;37.05;;;10.50;99.90;;;;;;5185645;28;20437;-66
2023/03/08 04:25:31;;;;;;;38.72;34.83;;;11.00;99.90;;;;;;5185798;28;20030;-66
2023/03/08 04:28:02;;;;;;;34.65;31.58;;;11.20;99.90;;;;;;5185728;28;20414;-65
2023/03/08 04:30:33;;;;;;;35.17;31.98;;;11.40;99.90;;;;;;5185715;28;20034;-66
2023/03/08 04:33:03;;;;;;;32.42;29.58;;;11.40;99.90;;;;;;5185807;28;20026;-65
2023/03/08 04:35:34;;;;;;;36.90;33.60;;;11.30;99.90;;;;;;5184446;28;20389;-66
2023/03/08 04:38:05;;;;;;;34.42;30.80;;;11.50;99.90;;;;;;5185696;28;20100;-66
2023/03/08 04:41:00;;;;;;;32.65;29.85;;;11.50;99.90;;;;;;5185456;28;20335;-65
2023/03/08 04:43:28;;;;;;;30.00;27.35;;;11.60;99.90;;;;;;5185292;28;20096;-65
2023/03/08 04:46:03;;;;;;;32.10;29.02;;;11.50;99.90;;;;;;5185401;28;20080;-66
2023/03/08 04:48:34;;;;;;;32.15;29.25;;;11.60;99.90;;;;;;5185431;28;20026;-66
2023/03/08 04:51:07;;;;;;;30.60;28.02;;;11.60;99.90;;;;;;5185174;28;20080;-66
2023/03/08 04:53:40;;;;;;;29.58;27.08;;;11.70;99.90;;;;;;5185472;28;20030;-65
2023/03/08 04:56:12;;;;;;;31.15;28.35;;;11.50;99.90;;;;;;5185352;28;20026;-66
2023/03/08 04:58:44;;;;;;;29.45;26.70;;;11.60;99.90;;;;;;5185255;28;20026;-66
2023/03/08 05:01:17;;;;;;;29.83;27.13;;;11.70;99.90;;;;;;5188308;28;20104;-65
2023/03/08 05:03:50;;;;;;;33.22;30.17;;;11.60;99.90;;;;;;5185291;28;20382;-66
2023/03/08 05:06:23;;;;;;;30.77;28.20;;;11.50;99.90;;;;;;5185157;28;20037;-65
2023/03/08 05:08:54;;;;;;;31.33;28.73;;;11.60;99.90;;;;;;5185315;28;20030;-67
2023/03/08 05:11:27;;;;;;;33.05;30.23;;;11.60;99.90;;;;;;5185337;28;20494;-65
2023/03/08 05:13:58;;;;;;;32.85;30.15;;;11.60;99.90;;;;;;5185322;28;20129;-65
2023/03/08 05:16:29;;;;;;;34.92;31.67;;;11.50;99.90;;;;;;5183926;28;20470;-65
2023/03/08 05:19:00;;;;;;;32.38;29.48;;;11.60;99.90;;;;;;5177252;28;20025;-65
2023/03/08 05:21:31;;;;;;;31.17;28.40;;;11.70;99.90;;;;;;5182670;28;20128;-65
2023/03/08 05:24:02;;;;;;;32.88;29.77;;;11.70;99.90;;;;;;5193896;28;20051;-65
2023/03/08 05:26:32;;;;;;;30.20;27.42;;;11.80;99.90;;;;;;5189889;28;20025;-65
2023/03/08 05:29:05;;;;;;;32.55;29.55;;;11.70;99.90;;;;;;5193726;28;20029;-65
2023/03/08 05:31:37;;;;;;;29.30;26.67;;;11.80;99.90;;;;;;5190256;28;20033;-65
2023/03/08 05:34:09;;;;;;;31.77;28.95;;;12.00;99.90;;;;;;5189887;28;20030;-66
2023/03/08 05:36:41;;;;;;;54.40;50.55;;;12.10;99.90;;;;;;5187016;28;20086;-65
2023/03/08 05:39:12;;;;;;;35.83;33.13;;;12.00;99.90;;;;;;5191487;28;20474;-65
2023/03/08 05:41:43;;;;;;;31.25;28.58;;;12.30;99.90;;;;;;5185143;28;20034;-65
2023/03/08 05:44:14;;;;;;;32.05;29.38;;;12.40;99.90;;;;;;5192677;28;20029;-66
2023/03/08 05:46:44;;;;;;;29.95;27.25;;;12.60;99.90;;;;;;5188995;28;20021;-65
2023/03/08 05:49:15;;;;;;;32.67;29.95;;;12.40;99.90;;;;;;5187839;28;20030;-65
2023/03/08 05:51:46;;;;;;;36.15;33.50;;;12.60;99.90;;;;;;5187365;28;20014;-65
2023/03/08 05:54:17;;;;;;;32.40;29.58;;;12.60;99.90;;;;;;5191698;28;20029;-65
2023/03/08 05:56:48;;;;;;;31.50;28.92;;;12.80;99.90;;;;;;5192103;28;20442;-65
2023/03/08 05:59:19;;;;;;;31.50;29.15;;;12.70;99.90;;;;;;5194862;28;20072;-65
2023/03/08 06:01:50;;;;;;;31.85;29.40;;;12.80;99.90;;;;;;5192877;28;20494;-65
2023/03/08 06:04:21;;;;;;;29.15;26.85;;;12.50;99.90;;;;;;5187723;28;20056;-65
2023/03/08 06:06:51;;;;;;;30.67;28.27;;;12.60;99.90;;;;;;5192696;28;20029;-65
2023/03/08 06:09:22;;;;;;;29.98;27.58;;;12.40;99.90;;;;;;5191826;28;20026;-65
2023/03/08 06:11:54;;;;;;;30.63;28.10;;;12.50;99.90;;;;;;5192005;28;20428;-66
2023/03/08 06:14:25;;;;;;;29.48;27.05;;;12.50;99.90;;;;;;5187693;28;20026;-65
2023/03/08 06:16:56;;;;;;;29.88;27.40;;;12.70;99.90;;;;;;5196867;28;20420;-65
2023/03/08 06:19:27;;;;;;;32.13;29.70;;;12.70;99.90;;;;;;5190085;28;20029;-65
2023/03/08 06:21:58;;;;;;;61.90;57.92;;;12.70;99.90;;;;;;5189183;28;20053;-65
2023/03/08 06:24:28;;;;;;;35.13;32.55;;;12.50;99.90;;;;;;5195580;28;20038;-65
2023/03/08 06:26:59;;;;;;;29.85;27.38;;;12.50;99.90;;;;;;5196490;28;20550;-65
2023/03/08 06:29:30;;;;;;;28.10;25.63;;;12.60;99.90;;;;;;5188617;28;20025;-65
2023/03/08 06:32:01;;;;;;;30.65;28.30;;;12.70;99.90;;;;;;5191692;28;20099;-65
2023/03/08 06:34:32;;;;;;;31.60;29.05;;;13.00;99.90;;;;;;5194582;28;20092;-65
2023/03/08 06:37:03;;;;;;;32.60;30.05;;;13.20;99.90;;;;;;5196028;28;20040;-65
2023/03/08 06:39:34;;;;;;;29.80;27.50;;;13.40;99.90;;;;;;5190556;28;20030;-65
2023/03/08 06:42:06;;;;;;;25.40;23.48;;;13.60;99.90;;;;;;5188460;28;20120;-66
2023/03/08 06:44:37;;;;;;;27.10;24.77;;;13.80;99.90;;;;;;5194879;28;20084;-64
2023/03/08 06:47:07;;;;;;;26.90;24.90;;;14.30;99.90;;;;;;5194933;28;20489;-64
2023/03/08 06:49:38;;;;;;;23.60;21.90;;;14.30;99.90;;;;;;5195849;28;20119;-64
2023/03/08 06:52:09;;;;;;;24.00;22.30;;;14.20;99.90;;;;;;5193743;28;20515;-63
2023/03/08 06:54:40;;;;;;;26.90;24.75;;;14.00;99.90;;;;;;5193879;28;20478;-64
2023/03/08 06:57:11;;;;;;;27.90;25.88;;;14.30;99.90;;;;;;5194883;28;20148;-64
2023/03/08 06:59:42;;;;;;;24.98;23.23;;;14.10;99.90;;;;;;5194479;28;20481;-65
2023/03/08 07:02:13;;;;;;;25.58;23.60;;;14.30;99.90;;;;;;5190696;28;20030;-65
2023/03/08 07:04:44;;;;;;;23.77;21.77;;;14.40;99.90;;;;;;5188744;28;20026;-65
2023/03/08 07:07:15;;;;;;;27.77;25.77;;;14.60;99.90;;;;;;5188339;28;20422;-65
2023/03/08 07:09:47;;;;;;;20.38;18.80;;;14.30;99.90;;;;;;5195825;28;20021;-65
2023/03/08 07:12:18;;;;;;;21.88;20.33;;;14.30;99.90;;;;;;5193552;28;20566;-65
2023/03/08 07:14:51;;;;;;;25.65;23.80;;;14.20;99.90;;;;;;5189582;28;20045;-66
2023/03/08 07:17:22;;;;;;;28.90;26.90;;;14.40;99.90;;;;;;5190725;28;20029;-65
2023/03/08 07:19:53;;;;;;;31.20;29.13;;;14.10;99.90;;;;;;5196174;28;20516;-66
2023/03/08 07:22:25;;;;;;;33.15;30.85;;;14.00;99.90;;;;;;5192482;28;20575;-65
2023/03/08 07:24:56;;;;;;;70.47;66.03;;;14.00;99.90;;;;;;5190618;28;20030;-66
2023/03/08 07:27:27;;;;;;;28.45;26.65;;;14.10;99.90;;;;;;5184929;28;20033;-66
2023/03/08 07:29:59;;;;;;;34.85;32.63;;;14.40;99.90;;;;;;5192084;28;20105;-65
2023/03/08 07:32:30;;;;;;;33.65;31.30;;;14.60;99.90;;;;;;5191384;28;20062;-66
2023/03/08 07:35:01;;;;;;;24.67;23.17;;;14.60;99.90;;;;;;5192958;28;20017;-65
2023/03/08 07:37:33;;;;;;;25.38;23.88;;;15.10;99.90;;;;;;5191557;28;20025;-65
2023/03/08 07:40:04;;;;;;;24.92;23.42;;;14.50;99.90;;;;;;5192633;28;20990;-65
2023/03/08 07:42:35;;;;;;;24.42;22.63;;;15.00;99.90;;;;;;5189918;28;20045;-65
2023/03/08 07:45:06;;;;;;;22.88;21.38;;;14.80;99.90;;;;;;5187691;28;20028;-65
2023/03/08 07:47:39;;;;;;;23.70;22.20;;;14.90;99.90;;;;;;5196242;28;20030;-64
2023/03/08 07:50:10;;;;;;;24.20;22.70;;;15.10;99.90;;;;;;5193823;28;20106;-66
2023/03/08 07:52:41;;;;;;;24.63;23.20;;;15.10;99.90;;;;;;5184603;28;20458;-65
2023/03/08 07:55:12;;;;;;;21.05;19.65;;;15.20;99.90;;;;;;5202275;28;20099;-65
2023/03/08 07:57:43;;;;;;;21.77;20.27;;;15.10;99.90;;;;;;5192379;28;20026;-64
2023/03/08 08:00:14;;;;;;;22.40;20.80;;;14.90;99.90;;;;;;5185868;28;20014;-64
2023/03/08 08:02:46;;;;;;;22.83;21.45;;;15.20;99.90;;;;;;5185891;28;20478;-64
2023/03/08 08:05:17;;;;;;;25.27;23.13;;;15.00;99.90;;;;;;5201978;28;20013;-64
2023/03/08 08:07:48;;;;;;;36.47;34.33;;;15.30;99.90;;;;;;5192704;28;20039;-64
2023/03/08 08:10:19;;;;;;;42.85;39.88;;;15.00;99.90;;;;;;5195075;28;20048;-65
2023/03/08 08:12:50;;;;;;;23.33;21.80;;;15.30;99.90;;;;;;5200952;28;20116;-64
2023/03/08 08:15:24;;;;;;;44.03;41.38;;;15.40;99.90;;;;;;5189161;28;20010;-65
2023/03/08 08:17:54;;;;;;;24.83;23.20;;;15.40;99.90;;;;;;5198273;28;20097;-64
2023/03/08 08:20:26;;;;;;;26.75;25.02;;;15.20;99.90;;;;;;5185457;28;20537;-64
2023/03/08 08:22:57;;;;;;;24.48;22.75;;;15.50;99.90;;;;;;5198094;28;20061;-64
2023/03/08 08:25:28;;;;;;;80.28;75.45;;;15.90;99.90;;;;;;5193460;28;20097;-66
2023/03/08 08:27:58;;;;;;;193.73;181.45;;;15.70;99.90;;;;;;5193816;28;20120;-64
2023/03/08 08:30:29;;;;;;;35.28;33.08;;;15.20;99.90;;;;;;5193263;28;20493;-64
2023/03/08 08:33:02;;;;;;;23.75;22.15;;;16.00;99.90;;;;;;5200607;28;20029;-65
2023/03/08 08:35:33;;;;;;;29.15;27.33;;;16.30;99.90;;;;;;5189757;28;20021;-64
2023/03/08 08:38:03;;;;;;;18.75;17.55;;;16.00;99.90;;;;;;5196636;28;20036;-64
2023/03/08 08:40:36;;;;;;;28.05;26.17;;;16.10;99.90;;;;;;5198399;28;20052;-65
2023/03/08 08:43:06;;;;;;;19.40;18.10;;;16.30;99.90;;;;;;5189259;28;20041;-64
2023/03/08 08:45:44;;;;;;;22.15;20.75;;;15.80;99.90;;;;;;5200153;28;20433;-67
2023/03/08 08:48:16;;;;;;;44.15;40.78;;;15.60;99.90;;;;;;5192319;28;20091;-65
2023/03/08 08:50:47;;;;;;;24.75;23.08;;;16.10;99.90;;;;;;5197776;28;20480;-64
2023/03/08 08:53:19;;;;;;;27.23;25.50;;;16.10;99.90;;;;;;5201076;28;20100;-65
2023/03/08 08:55:49;;;;;;;21.95;20.42;;;15.80;99.90;;;;;;5192333;28;20465;-65
2023/03/08 08:58:21;;;;;;;21.58;20.27;;;16.10;99.90;;;;;;5192906;28;20032;-66
2023/03/08 09:00:51;;;;;;;21.58;19.98;;;16.60;99.90;;;;;;5200777;28;20018;-66
2023/03/08 09:03:22;;;;;;;59.28;53.85;;;16.30;99.90;;;;;;5188862;28;20040;-67
2023/03/08 09:05:53;;;;;;;32.22;29.98;;;16.40;99.90;;;;;;5205641;28;20595;-67
2023/03/08 09:08:24;;;;;;;24.13;22.42;;;16.70;99.90;;;;;;5192410;28;20510;-66
2023/03/08 09:10:55;;;;;;;163.27;146.85;;;17.00;99.90;;;;;;5200521;28;20026;-65
2023/03/08 09:13:26;;;;;;;57.38;54.03;;;16.20;99.90;;;;;;5189521;28;20024;-64
2023/03/08 09:15:57;;;;;;;34.42;32.15;;;16.20;99.90;;;;;;5193699;28;20105;-64
2023/03/08 09:18:28;;;;;;;150.70;141.85;;;16.80;99.90;;;;;;5205332;28;20040;-64
2023/03/08 09:21:01;;;;;;;29.60;27.67;;;16.50;99.90;;;;;;5198216;28;20105;-65
2023/03/08 09:23:32;;;;;;;32.88;30.70;;;17.20;99.90;;;;;;5200458;28;20065;-64
2023/03/08 09:26:04;;;;;;;40.80;38.22;;;16.80;99.90;;;;;;5194457;28;20064;-64
2023/03/08 09:28:35;;;;;;;50.65;47.53;;;16.10;99.90;;;;;;5196039;28;20736;-64
2023/03/08 09:31:13;;;;;;;42.47;39.58;;;15.90;99.90;;;;;;5205070;28;20079;-65
2023/03/08 09:33:50;;;;;;;34.78;32.47;;;15.80;99.90;;;;;;5195130;28;20075;-65
2023/03/08 09:36:21;;;;;;;33.03;30.80;;;16.00;99.90;;;;;;5197638;28;20462;-65
2023/03/08 09:38:52;;;;;;;31.67;29.55;;;16.40;99.90;;;;;;5204039;28;20041;-65
2023/03/08 09:41:43;;;;;;;30.48;28.50;;;16.30;99.90;;;;;;5192491;28;20018;-65
2023/03/08 09:44:23;;;;;;;49.20;46.22;;;16.80;99.90;;;;;;5197706;28;20025;-65
2023/03/08 09:47:00;;;;;;;27.42;25.65;;;17.10;99.90;;;;;;5193095;28;20030;-64
2023/03/08 09:49:33;;;;;;;46.40;43.83;;;17.30;99.90;;;;;;5187896;28;20030;-64
2023/03/08 09:52:21;;;;;;;38.42;36.15;;;17.10;99.90;;;;;;5197274;28;20385;-64
2023/03/08 09:54:52;;;;;;;33.30;31.17;;;17.00;99.90;;;;;;5193309;28;20343;-64
2023/03/08 09:57:27;;;;;;;128.63;120.97;;;17.10;99.90;;;;;;5219803;28;20034;-64
2023/03/08 10:00:06;;;;;;;271.42;254.15;;;17.00;99.90;;;;;;5195320;28;20026;-64
2023/03/08 10:02:52;;;;;;;34.53;32.25;;;16.70;99.90;;;;;;5195173;28;20033;-64
2023/03/08 10:05:29;;;;;;;54.40;50.95;;;17.10;99.90;;;;;;5204233;28;20021;-64
2023/03/08 10:08:04;;;;;;;217.15;195.57;;;17.00;99.90;;;;;;5204741;28;20041;-64
2023/03/08 10:10:46;;;;;;;20.00;18.50;;;17.30;99.90;;;;;;5194965;28;20029;-65
2023/03/08 10:13:48;;;;;;;33.85;31.70;;;17.30;99.90;;;;;;5199504;28;20112;-65
2023/03/08 10:16:42;;;;;;;47.22;44.25;;;17.30;99.90;;;;;;5196377;28;20438;-65
2023/03/08 10:19:43;;;;;;;24.15;22.65;;;16.80;99.90;;;;;;5197044;28;20045;-65
2023/03/08 10:22:27;;;;;;;26.25;24.50;;;17.40;99.90;;;;;;5188193;28;20065;-65
2023/03/08 10:25:20;;;;;;;21.77;20.33;;;17.30;99.90;;;;;;5206213;28;20045;-64
2023/03/08 10:27:53;;;;;;;60.70;57.10;;;17.40;99.90;;;;;;5202124;28;20029;-65
2023/03/08 10:30:34;;;;;;;20.25;18.63;;;17.40;99.90;;;;;;5203549;28;20030;-65
2023/03/08 10:33:10;;;;;;;17.10;15.93;;;17.30;99.90;;;;;;5193938;28;20049;-63
2023/03/08 10:36:11;;;;;;;26.60;24.88;;;17.60;99.90;;;;;;5193550;28;20020;-64
2023/03/08 10:38:57;;;;;;;17.10;16.00;;;17.70;99.90;;;;;;5193577;28;20018;-64
2023/03/08 10:41:31;;;;;;;21.80;20.33;;;18.30;99.90;;;;;;5191367;28;20029;-64
2023/03/08 10:44:03;;;;;;;24.58;22.83;;;18.20;99.90;;;;;;5199106;28;20057;-65
2023/03/08 10:46:46;;;;;;;90.38;84.70;;;18.40;99.90;;;;;;5200415;28;20026;-64
2023/03/08 10:49:22;;;;;;;35.40;33.13;;;18.20;99.90;;;;;;5188552;28;20080;-64
2023/03/08 10:51:55;;;;;;;163.00;152.50;;;18.60;99.90;;;;;;5201527;28;20061;-65
2023/03/08 10:54:31;;;;;;;23.27;21.67;;;17.70;99.90;;;;;;5194307;28;20030;-64
2023/03/08 10:57:02;;;;;;;59.22;55.88;;;18.60;99.90;;;;;;5204928;28;20128;-64
2023/03/08 10:59:35;;;;;;;62.35;58.38;;;17.70;99.90;;;;;;5202491;28;20097;-63
2023/03/08 11:02:12;;;;;;;35.88;33.55;;;17.90;99.90;;;;;;5193658;28;20029;-64
2023/03/08 11:04:54;;;;;;;20.23;18.83;;;17.90;99.90;;;;;;5192244;28;20025;-65
2023/03/08 11:07:31;;;;;;;17.65;16.35;;;18.20;99.90;;;;;;5192232;28;20028;-64
2023/03/08 11:10:31;;;;;;;21.33;20.02;;;18.50;99.90;;;;;;5198518;28;20374;-63
2023/03/08 11:13:14;;;;;;;206.02;193.52;;;18.00;99.90;;;;;;5201289;28;20374;-63
2023/03/08 11:16:02;;;;;;;32.13;30.15;;;18.00;99.90;;;;;;5193268;28;20532;-64
2023/03/08 11:18:50;;;;;;;18.88;17.67;;;17.90;99.90;;;;;;5193911;28;20046;-65
2023/03/08 11:21:47;;;;;;;86.32;81.10;;;18.70;99.90;;;;;;5186061;28;20046;-64
2023/03/08 11:24:49;;;;;;;56.13;52.85;;;18.60;99.90;;;;;;5195994;28;20049;-63
2023/03/08 11:27:34;;;;;;;20.35;18.83;;;18.00;99.90;;;;;;5190221;28;20021;-64
2023/03/08 11:30:23;;;;;;;27.23;25.45;;;18.30;99.90;;;;;;5197291;28;20113;-64
2023/03/08 11:32:53;;;;;;;27.42;25.73;;;17.90;99.90;;;;;;5186584;28;20565;-63
2023/03/08 11:35:42;;;;;;;39.60;37.33;;;18.00;99.90;;;;;;5202567;28;20018;-64
2023/03/08 11:38:29;;;;;;;18.90;17.55;;;18.40;99.90;;;;;;5196645;28;20516;-66
2023/03/08 11:41:33;;;;;;;17.38;16.27;;;18.10;99.90;;;;;;5190234;28;20026;-63
2023/03/08 11:44:31;;;;;;;75.55;71.03;;;18.70;99.90;;;;;;5197746;28;20470;-64
2023/03/08 11:47:29;;;;;;;16.10;14.65;;;17.80;99.90;;;;;;5202477;28;20392;-64
2023/03/08 11:50:25;;;;;;;17.55;16.00;;;18.10;99.90;;;;;;5185237;28;20374;-64
2023/03/08 11:53:19;;;;;;;22.27;20.42;;;18.70;99.90;;;;;;5186130;28;20408;-64
2023/03/08 11:56:25;;;;;;;20.92;19.52;;;18.30;99.90;;;;;;5193109;28;20517;-64
2023/03/08 11:59:41;;;;;;;15.60;14.55;;;18.70;99.90;;;;;;5190315;28;20022;-64
2023/03/08 12:02:23;;;;;;;58.45;53.67;;;18.70;99.90;;;;;;5132881;28;20460;-64
2023/03/08 12:05:08;;;;;;;21.00;19.35;;;18.00;99.90;;;;;;5143331;28;20527;-64
2023/03/08 12:08:03;;;;;;;15.65;14.20;;;18.40;99.90;;;;;;5189406;28;20038;-64
2023/03/08 12:10:49;;;;;;;22.75;21.17;;;17.80;99.90;;;;;;5195814;28;20026;-65
2023/03/08 12:13:41;;;;;;;28.63;26.73;;;17.50;99.90;;;;;;5194595;28;20466;-64
2023/03/08 12:16:25;;;;;;;132.85;125.15;;;17.40;99.90;;;;;;5193448;28;20359;-65
2023/03/08 12:19:36;;;;;;;26.40;24.70;;;17.40;99.90;;;;;;5204379;28;20507;-64
2023/03/08 12:22:42;;;;;;;44.05;41.33;;;18.20;99.90;;;;;;5193385;28;20062;-64
2023/03/08 12:25:37;;;;;;;15.93;14.32;;;18.40;99.90;;;;;;5189502;28;20041;-64
2023/03/08 12:28:33;;;;;;;19.95;18.42;;;18.60;99.90;;;;;;5196498;28;20474;-64
2023/03/08 12:31:27;;;;;;;28.15;25.50;;;19.20;99.90;;;;;;5201324;28;20033;-64
2023/03/08 12:33:59;;;;;;;21.92;20.27;;;18.40;99.90;;;;;;5201272;28;20060;-64
2023/03/08 12:36:39;;;;;;;25.42;23.55;;;18.30;99.90;;;;;;5193172;28;20029;-64
2023/03/08 12:39:28;;;;;;;;;;;17.60;99.90;;;;;;5201336;28;20037;-65
2023/03/08 12:42:28;;;;;;;25.58;23.98;;;17.60;99.90;;;;;;5197346;28;19914;-64
2023/03/08 12:45:19;;;;;;;38.10;35.35;;;17.30;99.90;;;;;;5201485;28;20037;-64
2023/03/08 12:48:04;;;;;;;23.63;21.83;;;17.20;99.90;;;;;;5181912;28;20038;-64
2023/03/08 12:50:53;;;;;;;56.63;53.13;;;17.60;99.90;;;;;;5198322;28;20079;-64
2023/03/08 12:53:42;;;;;;;33.45;31.23;;;17.40;99.90;;;;;;5192829;28;20039;-64
2023/03/08 12:56:30;;;;;;;13.75;12.65;;;17.90;99.90;;;;;;5204495;28;20039;-64
2023/03/08 12:59:09;;;;;;;13.73;12.57;;;18.00;99.90;;;;;;5189260;28;20462;-63
2023/03/08 13:01:45;;;;;;;157.48;147.45;;;17.90;99.90;;;;;;5200504;28;20087;-64
2023/03/08 13:04:35;;;;;;;21.80;19.83;;;17.30;99.90;;;;;;5194730;28;20363;-63
2023/03/08 13:07:32;;;;;;;18.00;16.55;;;17.40;99.90;;;;;;5195676;28;20448;-64